Time;durP1;ratioP1;P1;durP2;ratioP2;P2;SDS_P1;SDS_P2;PMS_P1;PMS_P2;Temp;Humidity;BMP_temperature;BMP_pressure;BME280_temperature;BME280_humidity;BME280_pressure;Samples;Min_cycle;Max_cycle;Signal;HPM_P1;HPM_P2
2022/04/20 00:01:58;;;;;;;2.42;0.30;;;16.60;45.00;;;;;;5091085;28;20534;-71
2022/04/20 00:04:24;;;;;;;0.80;0.47;;;16.60;45.00;;;;;;5091352;28;20044;-70
2022/04/20 00:06:49;;;;;;;0.90;0.38;;;16.50;44.90;;;;;;5090883;28;20421;-66
2022/04/20 00:09:15;;;;;;;0.95;0.30;;;16.50;44.80;;;;;;5092114;28;20077;-70
2022/04/20 00:11:41;;;;;;;2.08;0.60;;;16.50;44.80;;;;;;5091150;28;20399;-64
2022/04/20 00:14:06;;;;;;;0.82;0.30;;;16.50;44.80;;;;;;5091049;28;20381;-64
2022/04/20 00:16:32;;;;;;;1.92;0.57;;;16.50;44.70;;;;;;5090141;28;20477;-70
2022/04/20 00:18:57;;;;;;;1.35;0.38;;;16.40;44.60;;;;;;5090962;28;20047;-70
2022/04/20 00:21:23;;;;;;;1.35;0.40;;;16.40;44.70;;;;;;5092178;28;20173;-68
2022/04/20 00:23:54;;;;;;;1.05;0.40;;;16.40;44.70;;;;;;5091965;28;20044;-68
2022/04/20 00:26:22;;;;;;;0.90;0.40;;;16.40;44.60;;;;;;5090824;28;20499;-63
2022/04/20 00:28:48;;;;;;;1.42;0.50;;;16.40;44.60;;;;;;5091559;28;20144;-71
2022/04/20 00:31:13;;;;;;;0.77;0.40;;;16.40;44.50;;;;;;5090856;28;20130;-63
2022/04/20 00:33:39;;;;;;;1.23;0.32;;;16.40;44.50;;;;;;5090077;28;20040;-70
2022/04/20 00:36:05;;;;;;;1.15;0.40;;;16.30;44.50;;;;;;5090602;28;20504;-69
2022/04/20 00:38:31;;;;;;;1.73;0.50;;;16.30;44.40;;;;;;5091948;28;20080;-70
2022/04/20 00:40:56;;;;;;;0.75;0.30;;;16.30;44.40;;;;;;5090869;28;20134;-70
2022/04/20 00:43:22;;;;;;;0.98;0.50;;;16.30;44.40;;;;;;5090772;28;20402;-70
2022/04/20 00:45:49;;;;;;;0.80;0.40;;;16.30;44.30;;;;;;5090617;28;20511;-64
2022/04/20 00:48:16;;;;;;;0.95;0.40;;;16.30;44.30;;;;;;5091152;28;20128;-69
2022/04/20 00:50:42;;;;;;;1.00;0.25;;;16.20;44.20;;;;;;5094985;28;20043;-70
2022/04/20 00:53:09;;;;;;;0.80;0.30;;;16.20;44.30;;;;;;5096338;28;20433;-63
2022/04/20 00:55:34;;;;;;;0.57;0.30;;;16.20;44.30;;;;;;5094876;28;20054;-70
2022/04/20 00:58:00;;;;;;;1.55;0.30;;;16.20;44.20;;;;;;5095716;28;20039;-70
2022/04/20 01:00:27;;;;;;;1.33;0.32;;;16.20;44.20;;;;;;5095623;28;20043;-70
2022/04/20 01:02:53;;;;;;;0.90;0.30;;;16.10;44.10;;;;;;5094420;28;20480;-64
2022/04/20 01:05:21;;;;;;;1.08;0.38;;;16.10;44.20;;;;;;5094271;28;20487;-70
2022/04/20 01:07:47;;;;;;;1.08;0.30;;;16.10;44.10;;;;;;5095641;28;20112;-70
2022/04/20 01:10:13;;;;;;;1.08;0.65;;;16.10;44.20;;;;;;5095439;28;20032;-73
2022/04/20 01:12:43;;;;;;;1.58;0.40;;;16.10;44.20;;;;;;5095492;28;20364;-70
2022/04/20 01:15:10;;;;;;;1.90;0.40;;;16.10;44.10;;;;;;5093948;28;20438;-70
2022/04/20 01:17:39;;;;;;;1.10;0.50;;;16.10;44.10;;;;;;5094071;28;20104;-70
2022/04/20 01:20:12;;;;;;;1.00;0.32;;;16.00;44.00;;;;;;5094228;28;20081;-71
2022/04/20 01:22:38;;;;;;;1.08;0.30;;;16.00;44.00;;;;;;5094346;28;20040;-69
2022/04/20 01:25:04;;;;;;;1.10;0.28;;;16.00;44.00;;;;;;5077358;28;20372;-70
2022/04/20 01:27:30;;;;;;;0.90;0.40;;;16.00;44.00;;;;;;5093597;28;20066;-70
2022/04/20 01:29:55;;;;;;;1.05;0.40;;;16.00;44.00;;;;;;5093832;28;20075;-70
2022/04/20 01:32:21;;;;;;;1.88;0.30;;;16.00;44.00;;;;;;5093587;28;20046;-71
2022/04/20 01:34:50;;;;;;;0.80;0.30;;;16.00;44.00;;;;;;5095091;28;20129;-70
2022/04/20 01:37:15;;;;;;;0.98;0.70;;;16.00;44.00;;;;;;5093731;28;20511;-70
2022/04/20 01:39:41;;;;;;;0.80;0.30;;;16.00;43.90;;;;;;5093688;28;20104;-71
2022/04/20 01:42:08;;;;;;;1.13;0.30;;;16.00;43.80;;;;;;5093758;28;20089;-71
2022/04/20 01:44:34;;;;;;;1.08;0.60;;;16.00;43.90;;;;;;5093846;28;20121;-70
2022/04/20 01:47:00;;;;;;;1.08;0.32;;;16.10;43.80;;;;;;5093592;28;20044;-70
2022/04/20 01:49:25;;;;;;;0.85;0.40;;;16.30;43.60;;;;;;5093540;28;20398;-70
2022/04/20 01:51:51;;;;;;;0.80;0.40;;;16.50;43.30;;;;;;5094691;28;20032;-70
2022/04/20 01:54:19;;;;;;;0.90;0.30;;;16.80;43.00;;;;;;5093367;28;20526;-70
2022/04/20 01:56:47;;;;;;;0.70;0.20;;;17.10;42.50;;;;;;5093532;28;20036;-69
2022/04/20 01:59:16;;;;;;;0.98;0.20;;;17.40;42.00;;;;;;5093086;28;20052;-70
2022/04/20 02:04:27;;;;;;;0.70;0.20;;;18.10;40.90;;;;;;5094401;28;20407;-63
2022/04/20 02:06:53;;;;;;;1.25;0.30;;;18.50;40.30;;;;;;5094413;28;20039;-69
2022/04/20 02:09:19;;;;;;;1.13;0.20;;;18.80;39.90;;;;;;5093150;28;20555;-71
2022/04/20 02:11:45;;;;;;;0.93;0.20;;;19.00;39.50;;;;;;5094278;28;20035;-70
2022/04/20 02:14:11;;;;;;;1.25;0.20;;;19.20;39.00;;;;;;5093091;28;20487;-70
2022/04/20 02:16:37;;;;;;;0.60;0.20;;;19.40;38.70;;;;;;5092902;28;20044;-70
2022/04/20 02:19:03;;;;;;;0.57;0.30;;;19.60;38.40;;;;;;5092979;28;20095;-66
2022/04/20 02:21:29;;;;;;;0.50;0.20;;;19.80;38.10;;;;;;5092887;28;20080;-70
2022/04/20 02:23:54;;;;;;;0.63;0.10;;;19.90;37.90;;;;;;5092804;28;20036;-70
2022/04/20 02:26:20;;;;;;;1.05;0.20;;;19.90;37.60;;;;;;5093972;28;20047;-64
2022/04/20 02:28:45;;;;;;;0.85;0.20;;;20.00;37.50;;;;;;5093688;28;20127;-71
2022/04/20 02:31:11;;;;;;;0.75;0.30;;;20.00;37.40;;;;;;5092948;28;20046;-70
2022/04/20 02:33:37;;;;;;;0.68;0.30;;;20.00;38.10;;;;;;5093911;28;20043;-71
2022/04/20 02:36:03;;;;;;;0.70;0.20;;;19.90;37.30;;;;;;5094034;28;20059;-70
2022/04/20 02:38:29;;;;;;;1.25;0.30;;;19.90;37.40;;;;;;5092582;28;20479;-70
2022/04/20 02:40:56;;;;;;;0.60;0.30;;;19.80;37.40;;;;;;5092747;28;20438;-70
2022/04/20 02:43:21;;;;;;;0.95;0.30;;;19.80;37.40;;;;;;5092640;28;20036;-70
2022/04/20 02:45:47;;;;;;;0.90;0.20;;;19.60;37.50;;;;;;5092448;28;20419;-70
2022/04/20 02:48:14;;;;;;;0.45;0.20;;;19.50;37.50;;;;;;5092294;28;20127;-70
2022/04/20 02:50:39;;;;;;;0.63;0.30;;;19.50;37.70;;;;;;5092377;28;20088;-70
2022/04/20 02:53:05;;;;;;;0.60;0.20;;;19.30;37.80;;;;;;5092454;28;20044;-65
2022/04/20 02:55:31;;;;;;;0.60;0.30;;;19.20;37.90;;;;;;5093527;28;20066;-70
2022/04/20 02:57:59;;;;;;;0.52;0.20;;;19.10;38.00;;;;;;5092074;28;20060;-70
2022/04/20 03:00:25;;;;;;;0.77;0.30;;;19.00;38.20;;;;;;5092434;28;20047;-70
2022/04/20 03:02:51;;;;;;;0.65;0.20;;;19.00;38.40;;;;;;5092138;28;20487;-69
2022/04/20 03:05:16;;;;;;;1.52;0.30;;;18.90;38.40;;;;;;5092224;28;20039;-71
2022/04/20 03:07:42;;;;;;;0.70;0.20;;;18.80;38.50;;;;;;5093395;28;20377;-65
2022/04/20 03:10:08;;;;;;;0.70;0.22;;;18.80;38.60;;;;;;5092156;28;20047;-70
2022/04/20 03:12:33;;;;;;;0.50;0.20;;;18.80;38.70;;;;;;5091337;28;20066;-72
2022/04/20 03:14:59;;;;;;;0.60;0.20;;;18.80;38.70;;;;;;5092077;28;20123;-63
2022/04/20 03:17:25;;;;;;;1.98;0.30;;;18.80;38.70;;;;;;5091801;28;20475;-70
2022/04/20 03:19:51;;;;;;;1.90;0.20;;;18.80;38.60;;;;;;5091462;28;20052;-70
2022/04/20 03:22:17;;;;;;;0.75;0.38;;;18.90;38.60;;;;;;5091666;28;20046;-67
2022/04/20 03:24:43;;;;;;;0.68;0.22;;;18.90;38.50;;;;;;5091643;28;20498;-69
2022/04/20 03:27:09;;;;;;;0.40;0.20;;;19.00;38.50;;;;;;5091418;28;20119;-70
2022/04/20 03:29:35;;;;;;;1.63;0.20;;;19.00;38.40;;;;;;5092426;28;20157;-69
2022/04/20 03:32:08;;;;;;;0.70;0.20;;;19.10;38.30;;;;;;5092772;28;20495;-64
2022/04/20 03:34:33;;;;;;;0.82;0.30;;;19.10;38.20;;;;;;5091664;28;20353;-64
2022/04/20 03:37:02;;;;;;;0.40;0.10;;;19.10;38.10;;;;;;5092751;28;20058;-63
2022/04/20 03:39:28;;;;;;;1.13;0.30;;;19.20;38.10;;;;;;5091647;28;20040;-71
2022/04/20 03:41:54;;;;;;;0.60;0.20;;;19.20;38.10;;;;;;5091599;28;20396;-70
2022/04/20 03:44:19;;;;;;;1.00;0.20;;;19.20;38.10;;;;;;5091831;28;20472;-70
2022/04/20 03:46:45;;;;;;;0.65;0.20;;;19.20;38.10;;;;;;5091237;28;20534;-72
2022/04/20 03:49:14;;;;;;;1.05;0.20;;;19.10;38.00;;;;;;5091534;28;20047;-70
2022/04/20 03:51:39;;;;;;;0.93;0.20;;;19.10;38.00;;;;;;5091271;28;20422;-70
2022/04/20 03:54:05;;;;;;;1.40;0.25;;;19.10;38.10;;;;;;5091166;28;20466;-70
2022/04/20 03:57:03;;;;;;;1.33;0.20;;;19.10;38.10;;;;;;5090990;28;20097;-70
2022/04/20 03:59:16;;;;;;;0.68;0.20;;;19.00;38.10;;;;;;5092262;28;20055;-70
2022/04/20 04:01:42;;;;;;;0.70;0.20;;;19.00;38.20;;;;;;5092471;28;20028;-70
2022/04/20 04:04:07;;;;;;;1.15;0.40;;;18.90;38.20;;;;;;5091091;28;20391;-70
2022/04/20 04:06:33;;;;;;;0.65;0.20;;;18.90;38.30;;;;;;5092136;28;20032;-71
2022/04/20 04:08:59;;;;;;;0.60;0.20;;;18.80;38.30;;;;;;5091180;28;20036;-70
2022/04/20 04:11:25;;;;;;;1.05;0.20;;;18.80;38.40;;;;;;5092161;28;20119;-70
2022/04/20 04:13:51;;;;;;;0.60;0.20;;;18.80;38.50;;;;;;5092400;28;20107;-70
2022/04/20 04:16:17;;;;;;;0.63;0.20;;;18.70;38.50;;;;;;5091027;28;20149;-71
2022/04/20 04:18:42;;;;;;;0.93;0.30;;;18.70;38.50;;;;;;5090791;28;20247;-70
2022/04/20 04:21:08;;;;;;;1.25;0.20;;;18.60;38.60;;;;;;5090716;28;20072;-63
2022/04/20 04:23:34;;;;;;;0.82;0.25;;;18.60;38.70;;;;;;5090929;28;20130;-64
2022/04/20 04:25:59;;;;;;;0.43;0.20;;;18.50;38.60;;;;;;5090938;28;20383;-65
2022/04/20 04:28:25;;;;;;;1.10;0.30;;;18.50;38.70;;;;;;5091885;28;20042;-64
2022/04/20 04:30:51;;;;;;;0.55;0.20;;;18.50;38.70;;;;;;5096459;28;20040;-71
2022/04/20 04:33:17;;;;;;;0.50;0.20;;;18.50;38.80;;;;;;5111207;28;20035;-68
2022/04/20 04:35:42;;;;;;;1.50;0.30;;;18.50;38.80;;;;;;5111307;28;20432;-71
2022/04/20 04:38:08;;;;;;;0.52;0.20;;;18.50;38.80;;;;;;5111190;28;20593;-69
2022/04/20 04:40:37;;;;;;;1.60;0.20;;;18.50;38.70;;;;;;5112313;28;20122;-70
2022/04/20 04:43:03;;;;;;;0.50;0.40;;;18.60;38.70;;;;;;5112087;28;20047;-70
2022/04/20 04:48:48;;;;;;;1.17;0.20;;;18.60;38.70;;;;;;5110601;28;20059;-71
2022/04/20 04:50:59;;;;;;;1.00;0.22;;;18.60;38.50;;;;;;5112102;28;20491;-70
2022/04/20 04:53:25;;;;;;;0.98;0.20;;;18.70;38.50;;;;;;5110951;28;20043;-70
2022/04/20 04:55:54;;;;;;;1.15;0.52;;;18.70;38.40;;;;;;5110839;28;20418;-70
2022/04/20 04:58:19;;;;;;;0.70;0.20;;;18.70;38.30;;;;;;5112168;28;20035;-69
2022/04/20 05:00:45;;;;;;;0.60;0.20;;;18.80;38.30;;;;;;5112069;28;20490;-64
2022/04/20 05:03:13;;;;;;;0.63;0.30;;;18.80;38.30;;;;;;5112061;28;20040;-70
2022/04/20 05:05:40;;;;;;;0.95;0.20;;;18.80;38.20;;;;;;5110813;28;20115;-71
2022/04/20 05:08:06;;;;;;;2.05;0.32;;;18.80;38.20;;;;;;5110485;28;20044;-63
2022/04/20 05:10:31;;;;;;;1.15;0.22;;;18.80;38.20;;;;;;5110974;28;20112;-68
2022/04/20 05:12:59;;;;;;;0.80;0.30;;;18.80;38.20;;;;;;5110681;28;20047;-63
2022/04/20 05:15:25;;;;;;;1.88;0.30;;;18.80;38.20;;;;;;5113329;28;20179;-63
2022/04/20 05:17:51;;;;;;;1.58;0.30;;;18.70;38.10;;;;;;5112137;28;20093;-65
2022/04/20 05:20:19;;;;;;;0.70;0.30;;;18.80;38.20;;;;;;5111883;28;20081;-70
2022/04/20 05:22:44;;;;;;;1.30;0.45;;;18.70;38.10;;;;;;5109934;28;20059;-70
2022/04/20 05:25:10;;;;;;;1.77;0.30;;;18.70;38.20;;;;;;5110670;28;20077;-69
2022/04/20 05:27:36;;;;;;;0.57;0.20;;;18.60;38.20;;;;;;5110158;28;20069;-64
2022/04/20 05:30:02;;;;;;;2.10;0.32;;;18.60;38.20;;;;;;5105906;28;20040;-71
2022/04/20 05:32:28;;;;;;;1.02;0.35;;;18.60;38.30;;;;;;5096086;28;20109;-70
2022/04/20 05:34:54;;;;;;;1.33;0.40;;;18.50;38.30;;;;;;5098103;28;20476;-70
2022/04/20 05:42:51;;;;;;;4.78;0.60;;;18.50;39.00;;;;;;5112543;28;20499;-67
2022/04/20 05:45:16;;;;;;;5.45;0.70;;;18.50;39.80;;;;;;5097638;28;20036;-71
2022/04/20 05:47:42;;;;;;;3.00;0.60;;;18.50;39.20;;;;;;5106515;28;20040;-69
2022/04/20 05:50:08;;;;;;;3.17;0.60;;;18.40;39.20;;;;;;5090628;28;20169;-73
2022/04/20 05:52:34;;;;;;;1.48;0.57;;;18.40;39.30;;;;;;5096564;28;20047;-70
2022/04/20 05:55:00;;;;;;;2.95;0.60;;;18.50;39.40;;;;;;5108970;28;20048;-73
2022/04/20 05:57:25;;;;;;;2.92;0.77;;;18.40;39.40;;;;;;5108102;28;20066;-71
2022/04/20 05:59:51;;;;;;;3.15;0.55;;;18.40;39.40;;;;;;5099660;28;20040;-66
2022/04/20 06:02:17;;;;;;;2.72;0.70;;;18.40;39.40;;;;;;5097239;28;20036;-69
2022/04/20 06:04:42;;;;;;;3.72;0.63;;;18.50;39.40;;;;;;5101376;28;20031;-69
2022/04/20 06:07:08;;;;;;;2.85;0.80;;;18.50;39.40;;;;;;5105084;28;20451;-69
2022/04/20 06:09:34;;;;;;;3.30;0.98;;;18.50;39.50;;;;;;5105046;28;20671;-71
2022/04/20 06:11:59;;;;;;;1.73;0.70;;;18.50;39.40;;;;;;5098680;28;20398;-69
2022/04/20 06:14:28;;;;;;;2.13;0.77;;;18.50;39.30;;;;;;5090723;28;20036;-69
2022/04/20 06:16:54;;;;;;;5.85;1.27;;;18.50;39.30;;;;;;5090673;28;20085;-64
2022/04/20 06:19:19;;;;;;;3.95;0.90;;;18.60;39.30;;;;;;5095598;28;20047;-68
2022/04/20 06:21:45;;;;;;;3.53;0.93;;;18.60;39.20;;;;;;5095797;28;20202;-63
2022/04/20 06:24:10;;;;;;;2.65;0.73;;;18.60;39.20;;;;;;5094968;28;20474;-70
2022/04/20 06:26:36;;;;;;;4.93;0.77;;;18.60;39.20;;;;;;5086575;28;20032;-68
2022/04/20 06:29:02;;;;;;;2.03;0.47;;;18.60;39.20;;;;;;5093882;28;20052;-69
2022/04/20 06:31:27;;;;;;;3.85;0.60;;;18.70;39.30;;;;;;5096372;28;20486;-72
2022/04/20 06:33:57;;;;;;;3.63;0.63;;;18.70;39.20;;;;;;5093438;28;20043;-71
2022/04/20 06:36:24;;;;;;;1.83;0.60;;;18.70;39.20;;;;;;5095523;28;20050;-69
2022/04/20 06:38:50;;;;;;;1.98;0.70;;;18.70;39.10;;;;;;5094329;28;20043;-69
2022/04/20 06:41:16;;;;;;;2.15;0.65;;;18.70;39.00;;;;;;5094910;28;20051;-69
2022/04/20 06:43:41;;;;;;;1.88;0.60;;;18.70;39.00;;;;;;5093795;28;20043;-64
2022/04/20 06:46:10;;;;;;;4.28;0.57;;;18.70;38.90;;;;;;5095933;28;20103;-69
2022/04/20 06:48:36;;;;;;;2.28;0.50;;;18.70;38.90;;;;;;5096355;28;20148;-69
2022/04/20 06:51:02;;;;;;;1.55;0.47;;;18.70;39.70;;;;;;5095794;28;20181;-71
2022/04/20 06:59:00;;;;;;;2.10;0.60;;;18.70;38.70;;;;;;5092820;28;20458;-71
2022/04/20 07:01:25;;;;;;;2.55;0.52;;;18.70;38.70;;;;;;5083664;28;20063;-69
2022/04/20 07:03:51;;;;;;;1.88;0.93;;;18.70;38.70;;;;;;5092854;28;20036;-67
2022/04/20 07:06:16;;;;;;;1.70;0.40;;;18.70;38.60;;;;;;5095058;28;20876;-70
2022/04/20 07:08:43;;;;;;;2.22;0.70;;;18.60;38.40;;;;;;5093579;28;20048;-70
2022/04/20 07:11:09;;;;;;;1.10;0.65;;;18.60;38.40;;;;;;5098030;28;20038;-73
2022/04/20 07:13:35;;;;;;;1.45;0.57;;;18.60;38.40;;;;;;5097687;28;20047;-71
2022/04/20 07:16:00;;;;;;;0.95;0.45;;;18.60;38.40;;;;;;5096689;28;20048;-70
2022/04/20 07:18:26;;;;;;;3.53;0.75;;;18.60;38.50;;;;;;5097000;28;20118;-66
2022/04/20 07:20:52;;;;;;;1.20;0.52;;;18.60;38.40;;;;;;5090772;28;20575;-71
2022/04/20 07:23:17;;;;;;;1.73;0.75;;;18.60;38.40;;;;;;5092478;28;20713;-69
2022/04/20 07:25:43;;;;;;;2.47;0.47;;;18.60;38.30;;;;;;5091248;28;20119;-64
2022/04/20 07:28:09;;;;;;;1.75;0.50;;;18.60;38.50;;;;;;5092621;28;20127;-68
2022/04/20 07:30:36;;;;;;;1.80;0.50;;;18.60;38.90;;;;;;5093871;28;20071;-69
2022/04/20 07:33:02;;;;;;;4.85;0.73;;;18.70;39.50;;;;;;5107941;27;20082;-69
2022/04/20 07:35:29;;;;;;;3.15;0.43;;;18.70;39.80;;;;;;5091227;28;20180;-69
2022/04/20 07:37:55;;;;;;;1.10;0.60;;;18.80;40.00;;;;;;5091686;28;20036;-69
2022/04/20 07:40:22;;;;;;;2.00;0.60;;;18.80;40.00;;;;;;5091349;28;21244;-68
2022/04/20 07:42:53;;;;;;;1.85;0.30;;;18.80;40.10;;;;;;5092327;28;20503;-67
2022/04/20 07:45:18;;;;;;;3.45;0.57;;;18.80;40.20;;;;;;5088908;28;20040;-68
2022/04/20 07:47:44;;;;;;;2.92;0.77;;;18.90;40.20;;;;;;5092253;28;20950;-67
2022/04/20 07:50:25;;;;;;;1.63;0.40;;;18.80;40.10;;;;;;5090573;28;20503;-68
2022/04/20 07:52:54;;;;;;;;;;;18.80;40.00;;;;;;5089950;28;20039;-67
2022/04/20 07:55:22;;;;;;;2.08;0.50;;;18.80;40.10;;;;;;5082883;28;19924;-68
2022/04/20 07:57:50;;;;;;;3.15;0.35;;;18.80;40.00;;;;;;5087173;28;20079;-69
2022/04/20 08:00:17;;;;;;;1.98;0.40;;;18.80;40.20;;;;;;5090005;28;20104;-68
2022/04/20 08:02:44;;;;;;;0.85;0.30;;;18.80;40.50;;;;;;5093065;28;20071;-62
2022/04/20 08:05:11;;;;;;;1.45;0.50;;;18.80;40.20;;;;;;5092262;28;20040;-68
2022/04/20 08:07:37;;;;;;;2.22;0.50;;;18.80;40.20;;;;;;5089336;28;20082;-69
2022/04/20 08:10:06;;;;;;;1.40;0.38;;;18.80;40.20;;;;;;5091679;28;20778;-70
2022/04/20 08:12:44;;;;;;;2.15;0.50;;;18.70;40.00;;;;;;5095802;28;20040;-70
2022/04/20 08:15:11;;;;;;;2.95;0.30;;;18.70;40.00;;;;;;5087742;28;20044;-68
2022/04/20 08:17:38;;;;;;;0.98;0.40;;;18.70;39.90;;;;;;5093543;28;20063;-69
2022/04/20 08:20:05;;;;;;;3.22;0.30;;;18.70;39.70;;;;;;5092677;28;20048;-67
2022/04/20 08:22:31;;;;;;;1.88;0.32;;;18.70;39.70;;;;;;5098191;28;20048;-69
2022/04/20 08:24:57;;;;;;;0.93;0.30;;;18.70;39.50;;;;;;5092400;28;20180;-68
2022/04/20 08:27:23;;;;;;;1.35;0.70;;;18.80;39.40;;;;;;5094414;28;20056;-68
2022/04/20 08:29:49;;;;;;;2.28;0.40;;;18.80;39.30;;;;;;5088404;28;20365;-68
2022/04/20 08:32:16;;;;;;;1.58;0.52;;;18.80;39.10;;;;;;5089058;28;20051;-67
2022/04/20 08:34:43;;;;;;;3.00;0.47;;;18.80;38.90;;;;;;5087485;28;20410;-64
2022/04/20 08:37:10;;;;;;;1.00;0.40;;;18.90;38.80;;;;;;5092426;28;20530;-70
2022/04/20 08:39:37;;;;;;;2.40;0.50;;;18.80;38.60;;;;;;5090635;28;20051;-71
2022/04/20 08:42:04;;;;;;;2.67;0.47;;;18.80;38.40;;;;;;5088080;28;20043;-72
2022/04/20 08:44:32;;;;;;;1.73;0.30;;;18.80;38.30;;;;;;5088591;28;20142;-70
2022/04/20 08:47:01;;;;;;;3.75;0.30;;;18.80;38.40;;;;;;5091490;28;20044;-68
2022/04/20 08:49:26;;;;;;;2.13;0.50;;;18.80;38.20;;;;;;5095760;28;20044;-69
2022/04/20 08:54:40;;;;;;;1.92;0.30;;;18.80;38.20;;;;;;5090183;28;20040;-70
2022/04/20 08:57:21;;;;;;;1.13;0.20;;;18.90;38.10;;;;;;5088545;28;20054;-71
2022/04/20 08:59:48;;;;;;;2.70;0.40;;;18.80;37.90;;;;;;5092609;28;20043;-71
2022/04/20 09:02:18;;;;;;;1.40;0.40;;;18.90;37.70;;;;;;5094408;28;20119;-65
2022/04/20 09:04:44;;;;;;;0.88;0.30;;;18.90;37.60;;;;;;5089385;28;20032;-69
2022/04/20 09:07:11;;;;;;;1.85;0.70;;;19.00;37.70;;;;;;5090865;28;20340;-71
2022/04/20 09:09:38;;;;;;;3.13;0.65;;;19.00;37.50;;;;;;5095050;28;20503;-70
2022/04/20 09:12:11;;;;;;;2.28;0.52;;;19.10;37.50;;;;;;5094797;28;20035;-68
2022/04/20 09:14:39;;;;;;;1.92;0.30;;;19.10;37.30;;;;;;5096843;28;20497;-72
2022/04/20 09:17:11;;;;;;;1.80;0.30;;;19.20;37.20;;;;;;5097007;28;20040;-72
2022/04/20 09:19:38;;;;;;;1.90;0.40;;;19.20;37.10;;;;;;5097729;28;20052;-72
2022/04/20 09:22:17;;;;;;;0.80;0.30;;;19.30;37.20;;;;;;5095424;28;20036;-69
2022/04/20 09:27:44;;;;;;;1.52;0.40;;;19.50;36.90;;;;;;5127113;27;20378;-71
2022/04/20 09:30:13;;;;;;;3.08;0.50;;;19.50;36.70;;;;;;5097519;28;20399;-71
2022/04/20 09:32:41;;;;;;;1.05;0.30;;;19.60;36.50;;;;;;5116082;27;20707;-72
2022/04/20 09:35:12;;;;;;;1.48;0.30;;;19.70;36.20;;;;;;5120670;27;20043;-71
2022/04/20 09:37:40;;;;;;;0.68;0.20;;;19.90;35.90;;;;;;5101983;28;20036;-73
2022/04/20 09:40:11;;;;;;;1.13;0.25;;;20.00;35.60;;;;;;5115639;27;20040;-65
2022/04/20 09:42:38;;;;;;;0.82;0.20;;;20.20;35.40;;;;;;5092057;28;20095;-71
2022/04/20 09:45:07;;;;;;;1.00;0.20;;;20.30;35.10;;;;;;5091627;28;20443;-71
2022/04/20 09:50:25;;;;;;;2.22;0.30;;;20.50;34.80;;;;;;5098976;28;20039;-69
2022/04/20 09:52:55;;;;;;;0.98;0.30;;;20.50;34.90;;;;;;5121091;27;20035;-69
2022/04/20 09:55:37;;;;;;;2.50;0.32;;;20.60;34.80;;;;;;5117853;27;20035;-74
2022/04/20 09:58:20;;;;;;;4.35;0.30;;;20.60;34.80;;;;;;5101903;28;20036;-72
2022/04/20 10:00:50;;;;;;;0.60;0.28;;;20.70;35.00;;;;;;5100703;28;20040;-72
2022/04/20 10:06:00;;;;;;;4.50;0.63;;;20.70;35.00;;;;;;5123598;27;20135;-72
2022/04/20 10:08:27;;;;;;;1.65;0.30;;;20.70;35.00;;;;;;5113560;27;20446;-71
2022/04/20 10:10:54;;;;;;;3.38;0.50;;;20.70;34.80;;;;;;5111015;27;20043;-70
2022/04/20 10:13:21;;;;;;;1.00;0.32;;;20.70;34.80;;;;;;5106877;27;20108;-71
2022/04/20 10:16:26;;;;;;;2.28;0.35;;;20.70;34.80;;;;;;5104554;27;20490;-73
2022/04/20 10:18:41;;;;;;;1.90;0.70;;;20.70;34.70;;;;;;5106489;27;20052;-72
2022/04/20 10:21:12;;;;;;;2.28;0.50;;;20.60;34.80;;;;;;5107303;27;20039;-66
2022/04/20 10:23:41;;;;;;;0.68;0.30;;;20.60;34.60;;;;;;5108227;27;20032;-72
2022/04/20 10:26:14;;;;;;;3.30;0.40;;;20.60;34.40;;;;;;5124518;27;20050;-72
2022/04/20 10:34:05;;;;;;;2.35;0.57;;;20.60;34.20;;;;;;5106933;27;20460;-70
2022/04/20 10:36:33;;;;;;;3.08;0.35;;;20.50;33.80;;;;;;5094796;28;20052;-70
2022/04/20 10:39:20;;;;;;;3.95;0.32;;;20.50;33.70;;;;;;5081196;28;20738;-71
2022/04/20 10:47:36;;;;;;;1.88;0.22;;;20.40;33.50;;;;;;5097027;27;20495;-72
2022/04/20 10:50:23;;;;;;;1.40;0.30;;;20.40;33.50;;;;;;5080437;28;20131;-71
2022/04/20 10:58:19;;;;;;;1.30;0.25;;;20.40;33.60;;;;;;5140733;27;20215;-69
2022/04/20 11:00:44;;;;;;;1.08;0.38;;;20.40;34.20;;;;;;5122072;28;20047;-73
2022/04/20 11:03:12;;;;;;;4.88;0.40;;;20.40;34.40;;;;;;5124715;27;20051;-71
2022/04/20 11:05:55;;;;;;;1.60;0.35;;;20.40;34.60;;;;;;5123045;28;20051;-69
2022/04/20 11:08:22;;;;;;;1.73;0.30;;;20.40;34.90;;;;;;5123176;28;20050;-71
2022/04/20 11:19:48;;;;;;;3.03;0.60;;;20.40;35.40;;;;;;5099599;28;20044;-70
2022/04/20 11:22:14;;;;;;;3.55;0.28;;;20.40;35.80;;;;;;5105658;28;20039;-72
2022/04/20 11:24:40;;;;;;;1.38;0.52;;;20.40;35.70;;;;;;5104936;28;20028;-75
2022/04/20 11:27:06;;;;;;;2.15;0.30;;;20.40;35.70;;;;;;5112055;28;20471;-72
2022/04/20 11:29:33;;;;;;;2.17;0.30;;;20.40;35.80;;;;;;5102605;28;20040;-73
2022/04/20 11:32:02;;;;;;;2.97;0.40;;;20.40;35.80;;;;;;5104025;28;20054;-69
2022/04/20 11:34:31;;;;;;;0.70;0.30;;;20.40;35.90;;;;;;5104996;28;20036;-70
2022/04/20 11:37:00;;;;;;;2.47;0.40;;;20.40;36.00;;;;;;5119696;28;20122;-69
2022/04/20 11:39:28;;;;;;;2.13;0.55;;;20.40;36.00;;;;;;5099066;28;20059;-72
2022/04/20 11:41:55;;;;;;;1.40;0.38;;;20.40;35.80;;;;;;5100379;28;20490;-69
2022/04/20 11:44:26;;;;;;;1.45;0.30;;;20.30;35.80;;;;;;5094606;28;20118;-70
2022/04/20 11:46:57;;;;;;;0.98;0.30;;;20.40;35.90;;;;;;5100257;28;20107;-72
2022/04/20 11:49:34;;;;;;;0.80;0.20;;;20.40;36.00;;;;;;5103553;28;20043;-72
2022/04/20 11:52:00;;;;;;;0.60;0.30;;;20.40;35.80;;;;;;5102269;28;20386;-70
2022/04/20 11:54:28;;;;;;;5.85;0.70;;;20.40;35.60;;;;;;5104832;28;20049;-70
2022/04/20 11:56:54;;;;;;;1.70;0.32;;;20.40;35.50;;;;;;5105795;28;20425;-72
2022/04/20 11:59:21;;;;;;;1.60;0.20;;;20.40;35.50;;;;;;5102430;28;20035;-69
2022/04/20 12:01:47;;;;;;;2.50;0.40;;;20.40;35.30;;;;;;5103807;28;20074;-71
2022/04/20 12:04:15;;;;;;;1.08;0.30;;;20.30;35.20;;;;;;5106266;28;20556;-71
2022/04/20 12:06:53;;;;;;;1.25;0.30;;;20.30;35.20;;;;;;5106197;28;20040;-72
2022/04/20 12:09:22;;;;;;;0.57;0.20;;;20.30;35.00;;;;;;5100856;28;20044;-71
2022/04/20 12:11:58;;;;;;;2.10;0.30;;;20.30;35.00;;;;;;5103710;28;20056;-71
2022/04/20 12:14:27;;;;;;;1.67;0.20;;;20.30;34.80;;;;;;5104691;28;20670;-72
2022/04/20 12:16:58;;;;;;;3.17;0.87;;;20.30;34.90;;;;;;5119631;28;20057;-71
2022/04/20 12:19:24;;;;;;;1.25;0.20;;;20.30;35.00;;;;;;5103845;28;20040;-71
2022/04/20 12:21:50;;;;;;;1.88;0.20;;;20.30;35.00;;;;;;5102650;28;20046;-70
2022/04/20 12:24:31;;;;;;;0.82;0.20;;;20.30;35.10;;;;;;5096111;28;20047;-71
2022/04/20 12:26:58;;;;;;;0.45;0.15;;;20.40;35.20;;;;;;5090338;28;20067;-70
2022/04/20 12:29:26;;;;;;;0.88;0.20;;;20.30;35.00;;;;;;5107463;28;20505;-69
2022/04/20 12:31:54;;;;;;;3.95;0.30;;;20.40;35.00;;;;;;5091274;28;20043;-70
2022/04/20 12:34:21;;;;;;;0.88;0.20;;;20.40;35.20;;;;;;5108912;28;20399;-70
2022/04/20 12:39:44;;;;;;;0.50;0.10;;;20.40;35.40;;;;;;5105316;27;20128;-71
2022/04/20 12:42:14;;;;;;;4.50;0.20;;;20.40;35.60;;;;;;5106063;28;20047;-69
2022/04/20 12:44:51;;;;;;;1.85;0.20;;;20.40;35.60;;;;;;5105844;28;20036;-71
2022/04/20 12:52:36;;;;;;;0.45;0.20;;;20.50;35.70;;;;;;5149723;27;20140;-69
2022/04/20 13:03:35;;;;;;;3.95;0.20;;;20.50;34.80;;;;;;5077153;28;20120;-69
2022/04/20 13:06:02;;;;;;;2.33;0.20;;;20.50;34.90;;;;;;5080993;28;20040;-69
2022/04/20 13:08:28;;;;;;;0.85;0.20;;;20.50;35.20;;;;;;5084658;28;20055;-70
2022/04/20 13:10:54;;;;;;;0.70;0.30;;;20.50;35.10;;;;;;5109086;28;20041;-71
2022/04/20 13:13:24;;;;;;;0.63;0.10;;;20.50;35.00;;;;;;5086530;28;20046;-70
2022/04/20 13:15:50;;;;;;;0.57;0.20;;;20.50;34.80;;;;;;5085808;28;20533;-70
2022/04/20 13:18:15;;;;;;;0.95;0.20;;;20.60;34.90;;;;;;5082293;28;20040;-71
2022/04/20 13:20:41;;;;;;;0.75;0.20;;;20.60;34.80;;;;;;5086332;28;20085;-70
2022/04/20 13:23:07;;;;;;;1.40;0.32;;;20.60;34.70;;;;;;5087304;28;20447;-69
2022/04/20 13:28:22;;;;;;;1.50;0.20;;;20.60;34.60;;;;;;5085747;28;20362;-70
2022/04/20 13:30:49;;;;;;;2.15;0.20;;;20.60;34.60;;;;;;5087208;28;20576;-69
2022/04/20 13:33:15;;;;;;;1.20;0.40;;;20.60;34.60;;;;;;5086072;28;20107;-68
2022/04/20 13:35:47;;;;;;;2.10;0.30;;;20.60;34.70;;;;;;5088344;28;20123;-70
2022/04/20 13:38:13;;;;;;;1.40;0.30;;;20.60;34.90;;;;;;5088252;28;20040;-74
2022/04/20 13:40:41;;;;;;;2.50;0.30;;;20.70;34.70;;;;;;5086101;28;20468;-68
2022/04/20 13:43:08;;;;;;;1.05;0.65;;;20.60;34.80;;;;;;5086574;28;20115;-71
2022/04/20 13:45:34;;;;;;;1.70;0.30;;;20.70;34.90;;;;;;5086363;28;20040;-72
2022/04/20 13:48:00;;;;;;;1.55;0.20;;;20.70;34.80;;;;;;5086544;28;20434;-71
2022/04/20 13:50:26;;;;;;;0.60;0.20;;;20.70;34.60;;;;;;5086238;28;20036;-71
2022/04/20 13:52:55;;;;;;;0.80;0.20;;;20.70;34.50;;;;;;5085995;28;20044;-72
2022/04/20 13:55:21;;;;;;;1.08;0.40;;;20.60;34.50;;;;;;5086331;28;20041;-72
2022/04/20 13:57:46;;;;;;;1.20;0.30;;;20.60;34.40;;;;;;5086764;28;20395;-71
2022/04/20 14:00:14;;;;;;;0.70;0.30;;;20.50;34.30;;;;;;5087908;28;20032;-72
2022/04/20 14:02:41;;;;;;;0.82;0.30;;;20.50;34.50;;;;;;5086618;28;20128;-70